Airfield :
LOGIN :

Register | Disclaimer

   EN    FR    IT 

 










Legend :    VFR   Marginal VFR   IFR   Intensive IFR   Very Intensive IFR
Visi :
Ceiling :
>= 8 km
>= 3000ft
5 to 8 km
1000 to 3000 ft
1500m to 5 km
500 to 1000 ft
800 to 1500m
200 to 500 ft
< 800m
< 200 ft
Symbols :   Thunderstorms  Fog  Heavy snow  Heavy precipitations  Wind > 20 kt
SIGMETs :     Misc.  Thunderstorms  Icing  Turbulence  Mountain Waves  Volcanic Ashes






- Airport Elevation : 995 ft
- IATA code : KTW


EPKT - Katowice

CURRENT METAR :
  • 202000Z 16008KT 7000 NSC 01/M02 Q1019

EXPIRED METARs :
  • 201930Z 15009KT 7000 NSC 01/M02 Q1019
  • 201900Z 15009KT 7000 NSC 01/M02 Q1019
  • 201830Z 14007KT 8000 NSC 01/M02 Q1020
  • 201800Z 15007KT 8000 NSC 02/M02 Q1020
  • 201730Z 15006KT 7000 NSC 01/M02 Q1020

TAF TAF EPKT
Valid from the 20 at 18:00 until the 21 at 18:00 UTC


201730Z 2018/2118 17007KT CAVOK
TEMPO 2018/2024 3500 BR
BECMG 2105/2108 28017G33KT 3000 SNRA BKN006 BKN014
BECMG 2112/2115 28007KT 8000 NSW BKN020
TEMPO 2112/2117 4000 SHRA BKN013CB



MET'MAP, your aeronautical weather chart ! - Copyright ORBIFLY December 2007 - Disclaimer

ORBIFLY MET'MAP TEAM :

Programming & Development : Alexandra Zaïnal
Concept & original design : Baudouin d'Aumeries
Assistance for programming : Marc-Olivier Méhu
Technical & hardware support : Manuel Goepfert

Contact : metmap@orbifly.com




SOURCES & CREDITS :

   NOAA